Detroit, Michigan
Traffic Map
Current Weather Conditions
Detroit, Michigan
Overcast
Overcast
50°
Feels Like: 50°
Wind Chill: 50° Ceiling: 4300
Heat Index: 50° Visibility: 9mi
Dew Point: 39° Wind: 17mph
Humidity: 66% Direction: 220° (SW)
Pressure: 29.85in Gusts: 28mph
Raw Report DataCYQG 192324Z AUTO 22015G24KT 9SM BKN043 OVC050 10/04 A2985 RMK SLP112
Traffic Incident Summary
Active as of:
Severity:
Category:
InformationThere was an issue retrieving the traffic information for this location. Please try a different location or try again shortly.
Advertisements